Time;durP1;ratioP1;P1;durP2;ratioP2;P2;SDS_P1;SDS_P2;PMS_P1;PMS_P2;Temp;Humidity;BMP_temperature;BMP_pressure;BME280_temperature;BME280_humidity;BME280_pressure;Samples;Min_cycle;Max_cycle;Signal;HPM_P1;HPM_P2
2023/10/02 00:03:48;;;;;;;13.82;4.87;;;;;;;19.27;62.61;98899.50;4480828;31;20089;-75
2023/10/02 00:06:16;;;;;;;11.88;3.83;;;;;;;19.26;62.88;98900.44;4488042;31;20112;-75
2023/10/02 00:08:49;;;;;;;16.95;4.72;;;;;;;19.56;61.60;98908.09;4487724;32;20151;-75
2023/10/02 00:11:35;;;;;;;12.95;4.32;;;;;;;19.88;60.00;98902.47;4486958;32;20124;-76
2023/10/02 00:14:20;;;;;;;14.00;4.57;;;;;;;19.97;59.43;98887.94;4487725;31;20478;-75
2023/10/02 00:16:59;;;;;;;17.85;5.80;;;;;;;19.90;59.54;98891.00;4488029;31;20491;-75
2023/10/02 00:19:47;;;;;;;15.48;4.80;;;;;;;19.83;59.94;98897.56;4488089;31;20084;-75
2023/10/02 00:22:37;;;;;;;14.68;4.82;;;;;;;19.78;60.43;98894.44;4486436;31;20084;-75
2023/10/02 00:25:09;;;;;;;16.52;4.68;;;;;;;19.62;61.21;98899.00;4487962;31;20419;-75
2023/10/02 00:27:37;;;;;;;15.15;4.07;;;;;;;19.75;61.31;98899.03;4487792;31;20088;-75
2023/10/02 00:30:07;;;;;;;14.18;4.80;;;;;;;19.86;60.75;98902.59;4487624;32;20084;-75
2023/10/02 00:32:38;;;;;;;13.13;4.10;;;;;;;19.90;60.58;98904.09;4486714;32;20085;-75
2023/10/02 00:35:06;;;;;;;15.63;4.95;;;;;;;19.62;61.95;98899.84;4487591;32;20435;-75
2023/10/02 00:37:45;;;;;;;13.35;4.57;;;;;;;19.39;62.87;98897.88;4488058;31;20116;-75
2023/10/02 00:40:22;;;;;;;15.05;4.75;;;;;;;19.24;63.63;98904.91;4487941;31;20094;-75
2023/10/02 00:45:59;;;;;;;12.93;5.18;;;;;;;18.99;64.90;98892.56;4487850;31;20108;-75
2023/10/02 00:48:30;;;;;;;16.30;4.75;;;;;;;18.87;65.21;98892.53;4487863;31;20095;-75
2023/10/02 00:51:00;;;;;;;15.65;4.65;;;;;;;19.13;64.85;98896.91;4486334;32;20179;-75
2023/10/02 00:53:39;;;;;;;14.25;4.95;;;;;;;19.13;64.98;98899.53;4486575;31;20080;-75
2023/10/02 00:56:28;;;;;;;17.00;5.03;;;;;;;18.94;65.65;98899.88;4487344;31;20161;-75
2023/10/02 00:59:14;;;;;;;14.07;4.55;;;;;;;19.30;64.28;98903.69;4486671;32;20506;-75
2023/10/02 01:01:42;;;;;;;15.55;5.50;;;;;;;19.35;63.83;98892.00;4486787;32;20084;-75
2023/10/02 01:04:09;;;;;;;13.95;4.43;;;;;;;19.18;65.17;98889.63;4487218;31;20251;-75
2023/10/02 01:07:04;;;;;;;13.73;4.60;;;;;;;19.77;62.47;98894.50;4487015;31;20100;-75
2023/10/02 01:09:33;;;;;;;13.18;4.55;;;;;;;19.74;62.35;98898.19;4486720;32;20461;-75
2023/10/02 01:12:00;;;;;;;13.20;4.35;;;;;;;19.69;62.12;98891.59;4486112;31;20096;-75
2023/10/02 01:14:50;;;;;;;13.52;4.47;;;;;;;19.78;61.53;98889.19;4487639;31;20152;-75
2023/10/02 01:17:21;;;;;;;13.52;4.45;;;;;;;19.84;61.63;98894.00;4487283;31;20088;-75
2023/10/02 01:19:57;;;;;;;16.80;4.87;;;;;;;19.68;62.64;98901.22;4486587;32;20134;-75
2023/10/02 01:22:30;;;;;;;15.75;5.20;;;;;;;19.87;61.46;98895.56;4487523;31;20092;-75
2023/10/02 01:25:14;;;;;;;18.45;5.43;;;;;;;19.64;62.11;98892.72;4486124;32;20076;-75
2023/10/02 01:27:48;;;;;;;16.90;4.93;;;;;;;20.00;60.39;98906.94;4487369;31;20112;-75
2023/10/02 01:30:20;;;;;;;13.82;4.78;;;;;;;20.30;59.59;98903.13;4486409;32;20122;-75
2023/10/02 01:33:06;;;;;;;14.05;4.50;;;;;;;20.08;60.05;98909.00;4487146;31;20103;-75
2023/10/02 01:35:48;;;;;;;16.27;4.62;;;;;;;20.39;59.14;98903.34;4487576;31;20457;-75
2023/10/02 01:38:18;;;;;;;14.87;5.15;;;;;;;20.10;60.14;98910.59;4487167;31;20116;-75
2023/10/02 01:40:53;;;;;;;16.08;5.15;;;;;;;19.86;61.12;98912.22;4487538;32;20096;-75
2023/10/02 01:43:22;;;;;;;14.55;5.12;;;;;;;19.54;62.91;98914.34;4486324;31;20162;-75
2023/10/02 01:45:49;;;;;;;13.98;4.70;;;;;;;19.47;62.95;98911.28;4487005;31;20081;-76
2023/10/02 01:48:36;;;;;;;22.33;5.72;;;;;;;19.73;62.23;98912.22;4487362;31;20148;-75
2023/10/02 01:51:21;;;;;;;16.77;4.80;;;;;;;19.80;62.48;98910.03;4487382;31;20096;-75
2023/10/02 01:54:02;;;;;;;14.95;4.70;;;;;;;19.52;62.90;98905.75;4486960;31;20513;-76
2023/10/02 01:56:34;;;;;;;16.10;5.35;;;;;;;20.35;60.32;98911.53;4486274;32;20140;-75
2023/10/02 01:59:10;;;;;;;13.70;4.82;;;;;;;20.38;59.43;98904.28;4486847;32;20581;-75
2023/10/02 02:01:52;;;;;;;13.57;5.20;;;;;;;20.67;58.77;98911.94;4487387;31;20088;-75
2023/10/02 02:04:28;;;;;;;15.90;5.43;;;;;;;20.65;58.66;98898.09;4486171;32;20096;-75
2023/10/02 02:06:58;;;;;;;15.10;4.60;;;;;;;20.37;59.71;98902.63;4486802;31;20540;-75
2023/10/02 02:09:30;;;;;;;15.95;5.03;;;;;;;20.43;59.66;98904.84;4485865;32;20092;-75
2023/10/02 02:12:14;;;;;;;17.92;4.87;;;;;;;20.15;60.23;98905.88;4487201;31;20092;-75
2023/10/02 02:14:51;;;;;;;14.18;4.95;;;;;;;20.09;60.25;98903.66;4486583;31;20084;-75
2023/10/02 02:17:21;;;;;;;17.20;5.30;;;;;;;19.75;61.28;98912.09;4487108;31;20079;-75
2023/10/02 02:19:53;;;;;;;17.27;5.80;;;;;;;19.07;65.12;98908.63;4487114;32;20089;-75
2023/10/02 02:22:26;;;;;;;17.15;5.78;;;;;;;19.79;62.64;98906.59;4485477;32;20104;-75
2023/10/02 02:24:56;;;;;;;14.77;5.40;;;;;;;19.67;62.38;98909.16;4487066;31;20118;-75
2023/10/02 02:27:23;;;;;;;15.27;5.55;;;;;;;19.40;63.61;98919.63;4486408;32;20454;-75
2023/10/02 02:29:54;;;;;;;18.25;5.40;;;;;;;20.17;61.29;98917.06;4486929;32;20088;-76
2023/10/02 02:32:36;;;;;;;17.62;5.40;;;;;;;20.44;60.21;98917.00;4472922;32;20151;-75
2023/10/02 02:35:09;;;;;;;16.05;4.78;;;;;;;20.67;59.13;98918.03;4486470;31;20175;-75
2023/10/02 02:37:36;;;;;;;13.32;5.00;;;;;;;20.08;60.37;98924.72;4486771;31;20079;-75
2023/10/02 02:40:22;;;;;;;16.95;5.45;;;;;;;20.49;59.44;98917.50;4486530;32;20104;-75
2023/10/02 02:42:51;;;;;;;16.98;5.15;;;;;;;20.27;59.82;98919.06;4486269;31;20115;-75
2023/10/02 02:45:28;;;;;;;16.25;5.30;;;;;;;20.16;61.03;98917.19;4485554;32;20153;-75
2023/10/02 02:48:04;;;;;;;17.00;5.72;;;;;;;20.31;60.69;98910.03;4486678;31;20688;-75
2023/10/02 02:50:36;;;;;;;14.57;5.53;;;;;;;19.90;61.38;98911.94;4485429;32;20109;-75
2023/10/02 02:53:16;;;;;;;20.05;5.62;;;;;;;19.99;61.76;98914.84;4486650;32;20115;-75
2023/10/02 02:55:44;;;;;;;17.90;6.50;;;;;;;19.56;63.33;98920.34;4486145;31;20155;-75
2023/10/02 02:58:12;;;;;;;17.92;5.95;;;;;;;20.09;61.52;98923.78;4486460;31;20084;-75
2023/10/02 03:00:39;;;;;;;14.52;6.07;;;;;;;20.18;61.08;98917.91;4486476;31;20085;-75
2023/10/02 03:03:42;;;;;;;16.98;5.72;;;;;;;20.14;61.05;98924.31;4485993;32;20439;-75
2023/10/02 03:06:00;;;;;;;14.30;4.87;;;;;;;19.78;62.04;98925.84;4484716;32;20095;-75
2023/10/02 03:08:41;;;;;;;16.98;5.70;;;;;;;19.51;62.91;98923.22;4486233;32;20155;-75
2023/10/02 03:11:08;;;;;;;16.62;5.03;;;;;;;19.89;61.11;98923.38;4486091;31;20157;-75
2023/10/02 03:13:35;;;;;;;18.27;5.70;;;;;;;19.67;62.38;98920.47;4486130;31;20438;-75
2023/10/02 03:16:08;;;;;;;14.18;5.50;;;;;;;19.32;63.84;98915.72;4485018;32;20080;-75
2023/10/02 03:18:43;;;;;;;20.27;6.28;;;;;;;19.55;62.86;98919.50;4485001;32;20088;-75
2023/10/02 03:21:24;;;;;;;16.92;5.30;;;;;;;19.38;63.18;98917.13;4486172;31;20403;-75
2023/10/02 03:24:00;;;;;;;14.20;5.32;;;;;;;19.47;62.41;98915.69;4485685;32;20109;-75
2023/10/02 03:26:52;;;;;;;13.35;5.18;;;;;;;19.80;61.20;98925.75;4486147;31;20088;-75
2023/10/02 03:29:21;;;;;;;15.68;6.45;;;;;;;18.50;64.99;98920.91;4486161;31;20084;-75
2023/10/02 03:31:49;;;;;;;16.95;5.75;;;;;;;17.64;69.56;98931.19;4486937;32;20104;-75
2023/10/02 03:34:29;;;;;;;15.20;5.30;;;;;;;17.74;70.39;98923.69;4488238;31;20371;-75
2023/10/02 03:37:08;;;;;;;16.48;5.68;;;;;;;18.73;66.76;98928.22;4488393;31;20164;-75
2023/10/02 03:39:52;;;;;;;16.30;6.20;;;;;;;18.84;65.54;98934.56;4488038;32;20106;-75
2023/10/02 03:42:25;;;;;;;16.08;5.30;;;;;;;19.04;64.13;98931.53;4488217;31;20418;-75
2023/10/02 03:44:56;;;;;;;16.40;5.43;;;;;;;20.13;58.73;98930.50;4487983;32;20104;-75
2023/10/02 03:47:25;;;;;;;15.15;5.62;;;;;;;20.26;57.80;98922.66;4488394;32;20095;-75
2023/10/02 03:50:00;;;;;;;15.38;5.55;;;;;;;19.34;60.43;98926.09;4488323;31;20077;-75
2023/10/02 03:52:30;;;;;;;15.85;5.53;;;;;;;19.28;59.62;98931.75;4487854;31;20144;-75
2023/10/02 03:55:02;;;;;;;15.35;5.55;;;;;;;19.46;58.98;98927.06;4488171;31;20096;-75
2023/10/02 03:57:47;;;;;;;15.25;5.22;;;;;;;19.45;58.53;98928.84;4487041;32;20102;-75
2023/10/02 04:00:18;;;;;;;13.48;5.12;;;;;;;18.86;59.95;98932.69;4487844;31;20098;-75
2023/10/02 04:02:51;;;;;;;16.08;5.53;;;;;;;18.69;60.42;98944.16;4488141;31;20103;-75
2023/10/02 04:05:42;;;;;;;15.15;5.80;;;;;;;18.86;59.85;98935.28;4487836;31;20096;-75
2023/10/02 04:08:14;;;;;;;16.17;5.20;;;;;;;18.69;60.58;98941.56;4488118;31;20081;-75
2023/10/02 04:10:52;;;;;;;15.43;5.60;;;;;;;19.20;59.61;98947.06;4488192;31;20132;-75
2023/10/02 04:13:23;;;;;;;14.30;5.10;;;;;;;19.68;57.81;98942.28;4487745;31;20209;-75
2023/10/02 04:15:53;;;;;;;15.75;5.75;;;;;;;18.69;60.64;98938.94;4488173;31;20111;-75
2023/10/02 04:21:12;;;;;;;19.23;5.90;;;;;;;19.00;59.67;98948.34;4486647;32;20084;-75
2023/10/02 04:23:42;;;;;;;14.43;5.65;;;;;;;19.40;57.53;98951.88;4487852;31;20092;-75
2023/10/02 04:26:22;;;;;;;15.50;5.37;;;;;;;18.97;58.09;98954.59;4488052;31;20439;-75
2023/10/02 04:29:13;;;;;;;15.15;5.25;;;;;;;18.83;58.69;98956.41;4487736;32;20408;-75
2023/10/02 04:31:43;;;;;;;17.27;5.70;;;;;;;19.37;56.64;98952.09;4487926;31;20081;-75
2023/10/02 04:36:51;;;;;;;13.10;5.32;;;;;;;18.52;58.84;98957.41;4488041;31;20092;-75
2023/10/02 04:39:52;;;;;;;13.60;5.20;;;;;;;17.86;60.63;98958.69;4486621;32;20107;-75
2023/10/02 04:42:19;;;;;;;14.07;5.03;;;;;;;18.12;59.96;98949.34;4484774;32;20156;-75
2023/10/02 04:44:56;;;;;;;14.90;5.30;;;;;;;18.48;58.80;98954.13;4488008;31;20089;-75
2023/10/02 04:47:27;;;;;;;14.60;5.40;;;;;;;18.40;59.18;98956.37;4487655;31;20108;-75
2023/10/02 04:53:38;;;;;;;12.55;4.50;;;;;;;18.73;57.97;98959.59;4487823;31;20084;-75
2023/10/02 04:55:41;;;;;;;15.82;5.78;;;;;;;18.71;58.36;98956.19;4479985;32;20149;-75
2023/10/02 04:58:19;;;;;;;15.63;5.32;;;;;;;18.31;59.86;98952.56;4487723;32;20096;-75
2023/10/02 05:03:34;;;;;;;14.18;5.30;;;;;;;17.87;61.67;98958.63;4487347;31;20103;-75
2023/10/02 05:06:03;;;;;;;16.98;5.18;;;;;;;18.81;58.98;98961.72;4487743;31;20091;-75
2023/10/02 05:11:06;;;;;;;14.77;5.50;;;;;;;18.09;62.17;98965.19;4487725;31;20578;-75
2023/10/02 05:16:27;;;;;;;16.25;5.28;;;;;;;18.97;59.11;98966.84;4487247;32;20153;-75
2023/10/02 05:18:54;;;;;;;14.68;5.32;;;;;;;18.63;59.61;98963.66;4487505;31;20092;-75
2023/10/02 05:21:35;;;;;;;17.15;5.28;;;;;;;18.70;60.17;98974.59;4487551;31;20396;-75
2023/10/02 05:24:04;;;;;;;17.30;5.60;;;;;;;18.58;60.49;98964.87;4487151;31;20088;-75
2023/10/02 05:26:36;;;;;;;14.50;5.50;;;;;;;19.46;58.66;98967.19;4486221;32;20222;-75
2023/10/02 05:29:06;;;;;;;18.95;5.20;;;;;;;19.73;60.19;98977.69;4487269;31;20087;-75
2023/10/02 05:31:40;;;;;;;14.85;5.43;;;;;;;20.46;58.33;98972.78;4487311;32;20121;-75
2023/10/02 05:34:09;;;;;;;13.48;4.82;;;;;;;21.35;55.71;98980.50;4486393;32;20080;-75
2023/10/02 05:36:54;;;;;;;16.12;5.15;;;;;;;22.19;53.32;98979.56;4485999;32;20156;-75
2023/10/02 05:42:06;;;;;;;14.93;5.45;;;;;;;23.80;48.79;98988.00;4487317;32;20133;-76
2023/10/02 05:44:34;;;;;;;15.85;4.97;;;;;;;24.57;46.64;98993.03;4487050;31;20111;-76
2023/10/02 05:47:05;;;;;;;18.67;5.62;;;;;;;25.02;45.01;98988.22;4487479;31;20409;-76
2023/10/02 05:49:33;;;;;;;15.60;5.87;;;;;;;25.80;43.93;98999.81;4487336;31;20131;-76
2023/10/02 05:52:00;;;;;;;15.68;5.12;;;;;;;26.59;41.68;98989.03;4486472;31;20098;-76
2023/10/02 05:54:35;;;;;;;14.10;5.15;;;;;;;26.23;41.32;98994.91;4487170;31;20080;-76
2023/10/02 05:57:14;;;;;;;12.75;4.62;;;;;;;26.30;40.93;98997.81;4487297;31;20093;-76
2023/10/02 05:59:54;;;;;;;13.40;5.32;;;;;;;26.13;41.04;99002.00;4486894;31;20102;-76
2023/10/02 06:02:24;;;;;;;16.67;5.03;;;;;;;25.38;42.46;98995.53;4486122;31;20149;-77
2023/10/02 06:04:53;;;;;;;16.62;5.12;;;;;;;24.92;43.65;98993.44;4485742;32;20171;-75
2023/10/02 06:07:43;;;;;;;13.48;5.20;;;;;;;25.19;43.35;98994.66;4487062;31;20096;-76
2023/10/02 06:10:24;;;;;;;13.73;5.10;;;;;;;25.14;43.86;98997.72;4487129;31;20135;-74
2023/10/02 06:13:03;;;;;;;16.02;5.22;;;;;;;25.72;43.07;99000.47;4486680;31;20098;-81
2023/10/02 06:15:46;;;;;;;13.68;5.28;;;;;;;25.60;44.00;98998.91;4485803;32;20405;-78
2023/10/02 06:18:27;;;;;;;12.18;4.53;;;;;;;26.38;42.23;98995.34;4487066;31;20089;-79
2023/10/02 06:21:00;;;;;;;13.48;4.97;;;;;;;26.37;42.42;99011.31;4486695;31;20141;-79
2023/10/02 06:23:37;;;;;;;15.82;5.40;;;;;;;26.30;42.44;99012.88;4485814;32;20084;-79
2023/10/02 06:26:11;;;;;;;14.68;5.65;;;;;;;26.19;42.89;99016.50;4485434;32;20141;-80
2023/10/02 06:28:39;;;;;;;14.23;6.00;;;;;;;26.11;42.75;99021.66;4485490;32;20101;-79
2023/10/02 06:31:06;;;;;;;14.95;4.75;;;;;;;26.22;42.94;99024.97;4486874;31;20153;-80
2023/10/02 06:33:37;;;;;;;17.87;5.72;;;;;;;26.37;42.89;99035.16;4485094;31;20092;-80
2023/10/02 06:36:06;;;;;;;16.08;5.05;;;;;;;26.52;42.91;99039.88;4486799;31;20072;-80
2023/10/02 06:38:33;;;;;;;14.35;5.32;;;;;;;27.19;41.86;99032.69;4486703;32;20139;-80
2023/10/02 06:41:07;;;;;;;15.30;5.32;;;;;;;27.14;42.03;99036.78;4485247;32;20113;-79
2023/10/02 06:43:35;;;;;;;13.30;5.37;;;;;;;27.89;40.70;99044.44;4486691;31;20088;-79
2023/10/02 06:46:13;;;;;;;13.80;5.07;;;;;;;27.85;41.06;99045.69;4486459;31;20072;-79
2023/10/02 06:48:43;;;;;;;13.10;5.15;;;;;;;28.46;40.01;99044.94;4486315;32;20092;-80
2023/10/02 06:51:13;;;;;;;15.05;5.50;;;;;;;28.78;38.99;99049.63;4486568;31;20137;-80
2023/10/02 06:53:42;;;;;;;14.68;5.10;;;;;;;28.77;39.09;99047.13;4484872;32;20106;-80
2023/10/02 06:56:11;;;;;;;35.80;6.30;;;;;;;29.64;37.69;99040.72;4486217;31;20427;-80
2023/10/02 06:58:56;;;;;;;13.18;4.55;;;;;;;29.23;38.22;99039.75;4486286;32;20096;-80
2023/10/02 07:01:27;;;;;;;14.20;5.00;;;;;;;29.47;38.33;99037.19;4486117;31;20447;-80
2023/10/02 07:03:56;;;;;;;12.07;4.72;;;;;;;28.85;38.73;99039.22;4486483;31;20088;-80
2023/10/02 07:06:24;;;;;;;13.80;4.80;;;;;;;28.86;39.41;99040.87;4488549;31;20076;-80
2023/10/02 07:11:52;;;;;;;15.00;5.43;;;;;;;28.79;38.88;99037.19;4469843;31;20101;-80
2023/10/02 07:14:23;;;;;;;11.65;4.20;;;;;;;29.62;37.37;99046.22;4488226;31;20124;-80
2023/10/02 07:17:08;;;;;;;14.43;4.50;;;;;;;29.96;36.12;99045.28;4488049;31;20081;-80
2023/10/02 07:19:38;;;;;;;13.52;4.72;;;;;;;29.57;36.94;99045.88;4488401;31;20096;-80
2023/10/02 07:22:16;;;;;;;13.35;4.30;;;;;;;30.20;35.36;99049.81;4488033;31;20435;-80
2023/10/02 07:24:45;;;;;;;11.68;4.28;;;;;;;30.24;34.12;99045.84;4486716;32;20108;-80
2023/10/02 07:27:28;;;;;;;12.32;3.87;;;;;;;30.73;33.97;99040.47;4488139;31;20107;-80
2023/10/02 07:29:59;;;;;;;12.05;4.15;;;;;;;30.49;32.82;99043.97;4487880;31;20379;-80
2023/10/02 07:32:32;;;;;;;10.73;3.80;;;;;;;30.09;31.59;99035.00;4488190;31;20096;-80
2023/10/02 07:35:09;;;;;;;12.60;3.55;;;;;;;30.65;30.74;99033.34;4488217;31;20088;-81
2023/10/02 07:37:38;;;;;;;9.30;2.97;;;;;;;31.13;29.49;99046.69;4487988;31;20084;-81
2023/10/02 07:40:06;;;;;;;9.68;3.45;;;;;;;31.28;28.50;99043.16;4488139;32;20461;-81
2023/10/02 07:42:33;;;;;;;8.55;3.05;;;;;;;31.20;28.24;99042.38;4488236;31;20111;-82
2023/10/02 07:45:21;;;;;;;10.50;3.15;;;;;;;31.56;27.15;99038.16;4487604;32;20092;-82
2023/10/02 07:50:35;;;;;;;9.60;3.10;;;;;;;31.83;26.07;99054.72;4487634;31;20092;-82
2023/10/02 07:53:06;;;;;;;8.13;2.92;;;;;;;32.37;25.57;99054.69;4488215;31;20109;-82
2023/10/02 07:55:35;;;;;;;9.98;3.20;;;;;;;32.95;24.81;99055.78;4488512;32;20115;-82
2023/10/02 07:58:04;;;;;;;9.40;2.80;;;;;;;33.46;23.75;99043.31;4486870;32;20089;-82
2023/10/02 08:00:33;;;;;;;7.80;2.75;;;;;;;32.59;24.85;99058.31;4488215;32;20100;-83
2023/10/02 08:03:03;;;;;;;8.57;2.70;;;;;;;33.61;22.98;99057.50;4487998;31;20096;-82
2023/10/02 08:05:38;;;;;;;8.23;2.85;;;;;;;33.76;21.86;99051.28;4487870;31;20128;-83
2023/10/02 08:08:08;;;;;;;9.02;3.22;;;;;;;34.43;20.68;99053.59;4488093;31;20068;-82
2023/10/02 08:10:49;;;;;;;7.97;2.70;;;;;;;34.08;20.79;99058.00;4488036;31;20100;-82
2023/10/02 08:13:17;;;;;;;6.37;2.50;;;;;;;31.28;23.44;99055.66;4488169;31;20096;-83
2023/10/02 08:15:47;;;;;;;9.50;3.00;;;;;;;33.00;21.25;99058.75;4487617;32;20138;-83
2023/10/02 08:18:17;;;;;;;10.35;2.97;;;;;;;33.56;20.86;99057.22;4487870;31;20073;-85
2023/10/02 08:20:45;;;;;;;9.35;2.58;;;;;;;32.94;21.20;99057.63;4487891;31;20093;-84
2023/10/02 08:23:21;;;;;;;7.68;2.90;;;;;;;32.53;22.65;99055.34;4487688;31;20136;-83
2023/10/02 08:26:02;;;;;;;10.07;2.83;;;;;;;32.75;22.04;99058.13;4487569;31;20153;-84
2023/10/02 08:28:36;;;;;;;9.38;2.83;;;;;;;33.33;22.41;99057.34;4487024;31;20473;-85
2023/10/02 08:31:03;;;;;;;9.05;2.85;;;;;;;33.53;21.59;99054.13;4487108;32;20778;-85
2023/10/02 08:33:31;;;;;;;8.55;3.20;;;;;;;33.15;21.49;99061.41;4486230;31;20438;-83
2023/10/02 08:36:19;;;;;;;8.27;2.55;;;;;;;33.13;21.89;99058.94;4487035;32;20092;-81
2023/10/02 08:38:49;;;;;;;9.63;2.80;;;;;;;32.52;22.90;99064.37;4488012;31;20111;-84
2023/10/02 08:41:27;;;;;;;7.45;2.50;;;;;;;31.74;23.97;99061.09;4487884;31;20112;-84
2023/10/02 08:43:54;;;;;;;7.95;2.83;;;;;;;31.45;24.20;99056.41;4487641;31;20088;-83
2023/10/02 08:46:22;;;;;;;7.47;2.70;;;;;;;29.99;25.77;99060.06;4486342;32;20084;-83
2023/10/02 08:48:55;;;;;;;7.25;2.90;;;;;;;28.61;27.14;99062.97;4487692;31;20077;-82
2023/10/02 08:51:32;;;;;;;7.70;2.67;;;;;;;29.61;26.05;99052.53;4486721;32;20583;-82
2023/10/02 08:54:05;;;;;;;8.85;2.90;;;;;;;30.92;25.34;99057.91;4487301;31;20395;-81
2023/10/02 08:56:48;;;;;;;8.43;2.72;;;;;;;31.46;24.77;99056.22;4487937;31;20088;-82
2023/10/02 08:59:26;;;;;;;9.75;2.90;;;;;;;31.03;25.20;99047.72;4487698;31;20076;-82
2023/10/02 09:02:07;;;;;;;8.30;2.80;;;;;;;31.80;24.33;99055.91;4487366;31;20097;-82
2023/10/02 09:04:34;;;;;;;7.30;2.60;;;;;;;32.92;23.42;99059.66;4487695;31;20114;-82
2023/10/02 09:07:14;;;;;;;7.65;2.60;;;;;;;33.05;23.29;99049.16;4487302;32;20154;-82
2023/10/02 09:12:48;;;;;;;7.72;2.70;;;;;;;31.32;24.49;99039.13;4474600;31;20164;-82
2023/10/02 09:15:30;;;;;;;7.28;2.50;;;;;;;32.98;23.12;99040.22;4486276;32;20092;-82
2023/10/02 09:18:17;;;;;;;8.13;2.87;;;;;;;33.57;22.82;99042.00;4486617;32;20101;-82
2023/10/02 09:20:53;;;;;;;7.12;2.50;;;;;;;33.37;22.48;99047.94;4487507;31;20094;-82
2023/10/02 09:23:24;;;;;;;6.45;2.45;;;;;;;31.10;24.63;99040.69;4486102;32;20100;-82
2023/10/02 09:26:16;;;;;;;9.43;2.90;;;;;;;31.20;24.11;99040.53;4486163;32;20157;-82
2023/10/02 09:28:58;;;;;;;9.05;2.70;;;;;;;32.71;23.65;99036.31;4486280;32;20141;-82
2023/10/02 09:31:34;;;;;;;7.15;2.45;;;;;;;32.89;23.62;99027.13;4487752;32;20094;-82
2023/10/02 09:34:16;;;;;;;7.62;2.50;;;;;;;33.05;24.17;99030.44;4486206;32;20104;-82
2023/10/02 09:37:11;;;;;;;8.30;2.72;;;;;;;33.17;24.23;99025.44;4486853;31;20148;-82
2023/10/02 09:40:00;;;;;;;6.72;2.70;;;;;;;32.79;25.06;99032.72;4486379;32;20539;-82
2023/10/02 09:42:30;;;;;;;9.70;2.83;;;;;;;33.48;24.20;99030.59;4486980;31;20088;-82
2023/10/02 09:44:58;;;;;;;8.93;2.85;;;;;;;34.04;23.54;99028.13;4486133;32;20147;-82
2023/10/02 09:47:30;;;;;;;8.27;3.28;;;;;;;33.67;24.78;99023.78;4486329;32;20104;-82
2023/10/02 09:50:26;;;;;;;8.82;2.60;;;;;;;33.58;24.88;99023.09;4487076;31;20147;-82
2023/10/02 09:53:00;;;;;;;8.38;2.65;;;;;;;32.93;25.17;99025.75;4486227;32;20426;-82
2023/10/02 09:55:44;;;;;;;7.45;2.53;;;;;;;31.89;26.01;99030.00;4486067;32;20104;-82
2023/10/02 09:58:29;;;;;;;8.00;2.70;;;;;;;32.89;24.66;99021.78;4486903;31;20099;-82
2023/10/02 10:03:53;;;;;;;9.23;2.93;;;;;;;33.32;25.05;99012.06;4485513;31;20103;-80
2023/10/02 10:06:27;;;;;;;8.52;2.50;;;;;;;32.84;24.56;99011.63;4487241;32;20470;-82
2023/10/02 10:11:42;;;;;;;6.97;2.40;;;;;;;32.90;24.75;99008.25;4486753;31;20115;-82
2023/10/02 10:14:37;;;;;;;8.95;2.50;;;;;;;32.39;24.97;99013.41;4486975;31;20111;-81
2023/10/02 10:17:13;;;;;;;8.30;2.40;;;;;;;33.16;24.41;99013.09;4487104;31;20108;-81
2023/10/02 10:19:41;;;;;;;9.27;2.92;;;;;;;33.85;24.56;99005.47;4487135;31;20084;-82
2023/10/02 10:22:38;;;;;;;8.25;2.70;;;;;;;32.56;25.20;99007.94;4486917;31;20389;-81
2023/10/02 10:25:35;;;;;;;9.95;3.22;;;;;;;33.14;26.21;99011.63;4486448;31;20080;-81
2023/10/02 10:28:06;;;;;;;10.40;3.62;;;;;;;32.42;29.51;99012.22;4480158;31;20111;-81
2023/10/02 10:30:39;;;;;;;10.30;3.62;;;;;;;32.02;31.44;98998.22;4485914;32;20108;-81
2023/10/02 10:35:40;;;;;;;11.18;3.92;;;;;;;31.64;32.22;99000.78;4486727;31;20123;-80
2023/10/02 10:38:25;;;;;;;13.07;3.85;;;;;;;30.17;34.01;99000.41;4485605;32;20122;-80
2023/10/02 10:41:05;;;;;;;11.27;4.05;;;;;;;30.59;31.68;98999.34;4488385;31;20109;-80
2023/10/02 10:46:23;;;;;;;11.93;3.70;;;;;;;29.77;33.07;98995.87;4488427;31;20072;-80
2023/10/02 10:49:24;;;;;;;10.85;3.60;;;;;;;29.80;32.21;98992.91;4488604;31;20401;-80
2023/10/02 10:51:52;;;;;;;10.52;3.53;;;;;;;28.68;33.83;98987.00;4487749;32;20104;-80
2023/10/02 10:54:30;;;;;;;9.52;3.67;;;;;;;28.81;33.94;98977.59;4487962;31;20152;-79
2023/10/02 10:57:27;;;;;;;12.60;3.97;;;;;;;28.92;33.73;98979.16;4488639;31;20107;-80
2023/10/02 11:03:06;;;;;;;9.30;3.58;;;;;;;28.96;33.12;98975.22;4488581;31;20244;-80
2023/10/02 11:05:35;;;;;;;10.13;3.37;;;;;;;28.75;34.40;98966.78;4488686;31;20537;-80
2023/10/02 11:08:24;;;;;;;8.82;3.33;;;;;;;28.84;34.31;98965.84;4488158;31;20098;-80
2023/10/02 11:11:11;;;;;;;9.77;3.75;;;;;;;28.85;33.58;98964.00;4488630;31;20096;-81
2023/10/02 11:13:51;;;;;;;14.33;4.10;;;;;;;28.59;33.70;98964.03;4488186;31;20114;-81
2023/10/02 11:16:34;;;;;;;10.88;3.58;;;;;;;28.65;34.29;98966.06;4487377;32;20206;-80
2023/10/02 11:19:10;;;;;;;10.52;3.65;;;;;;;29.11;33.14;98956.81;4488482;31;20496;-80
2023/10/02 11:21:48;;;;;;;12.40;3.53;;;;;;;28.49;34.09;98958.84;4488071;31;20111;-80
2023/10/02 11:24:20;;;;;;;;;;;;;;;28.53;35.17;98963.69;4488561;31;20713;-80
2023/10/02 11:26:47;;;;;;;10.85;3.30;;;;;;;28.35;35.97;98957.59;4488498;31;19975;-80
2023/10/02 11:29:20;;;;;;;10.55;3.78;;;;;;;29.08;34.10;98954.50;4487745;32;20101;-80
2023/10/02 11:34:51;;;;;;;11.95;3.45;;;;;;;29.15;34.79;98949.37;4487980;31;20133;-80
2023/10/02 11:37:19;;;;;;;10.85;3.37;;;;;;;28.28;36.01;98948.59;4488227;31;20102;-80
2023/10/02 11:39:50;;;;;;;10.93;3.28;;;;;;;29.71;33.21;98940.69;4487994;31;20113;-81
2023/10/02 11:42:18;;;;;;;12.25;4.00;;;;;;;29.80;32.74;98939.69;4487887;31;20187;-81
2023/10/02 11:44:46;;;;;;;9.05;3.60;;;;;;;29.85;32.74;98942.69;4487943;31;20100;-82
2023/10/02 11:47:14;;;;;;;11.90;3.75;;;;;;;30.23;32.29;98940.38;4486968;32;20091;-80
2023/10/02 11:49:44;;;;;;;9.85;3.33;;;;;;;29.50;32.85;98935.84;4487449;31;20080;-82
2023/10/02 11:52:12;;;;;;;10.57;3.08;;;;;;;29.83;32.55;98934.03;4488071;31;20592;-82
2023/10/02 11:54:41;;;;;;;10.77;3.50;;;;;;;29.95;31.86;98935.38;4488079;32;20136;-81
2023/10/02 11:57:09;;;;;;;9.27;3.20;;;;;;;30.15;32.24;98921.75;4487749;31;20772;-81
2023/10/02 11:59:37;;;;;;;10.20;3.50;;;;;;;29.94;32.51;98930.22;4488100;31;20120;-81
2023/10/02 12:02:04;;;;;;;12.40;3.47;;;;;;;30.49;31.37;98924.16;4486755;32;20104;-81
2023/10/02 12:04:34;;;;;;;9.20;3.25;;;;;;;30.77;30.73;98922.75;4487651;31;20435;-80
2023/10/02 12:07:01;;;;;;;8.50;3.08;;;;;;;30.50;31.79;98917.81;4488207;31;20092;-79
2023/10/02 12:09:28;;;;;;;9.73;3.22;;;;;;;30.34;31.29;98918.72;4487686;31;20147;-80
2023/10/02 12:11:55;;;;;;;10.20;3.08;;;;;;;30.37;31.04;98917.53;4487827;32;20105;-81
2023/10/02 12:14:22;;;;;;;10.35;3.50;;;;;;;30.15;32.08;98911.09;4487896;31;20104;-81
2023/10/02 12:16:50;;;;;;;9.07;2.72;;;;;;;29.87;32.17;98913.25;4487737;31;20081;-80
2023/10/02 12:19:16;;;;;;;9.82;3.45;;;;;;;29.83;32.40;98906.59;4487865;31;20080;-80
2023/10/02 12:21:43;;;;;;;9.88;3.08;;;;;;;29.73;32.43;98895.31;4487891;32;20156;-81
2023/10/02 12:24:30;;;;;;;9.30;3.22;;;;;;;30.50;31.45;98904.50;4487834;31;20153;-81
2023/10/02 12:26:58;;;;;;;9.40;2.87;;;;;;;29.86;31.88;98907.09;4486879;32;20092;-81
2023/10/02 12:29:25;;;;;;;9.23;3.20;;;;;;;30.12;31.67;98900.78;4487764;31;20072;-80
2023/10/02 12:31:53;;;;;;;10.70;3.10;;;;;;;30.21;31.60;98894.47;4487497;31;20110;-81
2023/10/02 12:34:20;;;;;;;8.90;2.75;;;;;;;30.13;31.99;98891.81;4487611;31;20109;-80
2023/10/02 12:36:49;;;;;;;8.82;3.37;;;;;;;30.26;31.94;98889.44;4487805;31;20804;-82
2023/10/02 12:39:16;;;;;;;8.95;2.92;;;;;;;30.41;32.00;98895.72;4487546;31;20085;-81
2023/10/02 12:41:44;;;;;;;9.02;3.17;;;;;;;30.65;30.96;98892.19;4487639;31;20100;-81
2023/10/02 12:44:11;;;;;;;8.90;3.05;;;;;;;30.15;31.45;98889.81;4487659;31;20084;-81
2023/10/02 12:46:45;;;;;;;7.03;2.62;;;;;;;30.81;30.20;98891.25;4487432;31;20151;-82
2023/10/02 12:49:15;;;;;;;7.93;2.80;;;;;;;30.30;31.25;98882.75;4487899;31;20544;-79
2023/10/02 12:51:43;;;;;;;10.23;2.85;;;;;;;30.20;31.61;98876.81;4487425;32;20151;-78